createdAt,value
2018-03-23T00:01:36.811Z,2.00
2018-03-23T00:04:03.683Z,1.90
2018-03-23T00:06:29.857Z,1.80
2018-03-23T00:08:55.988Z,1.90
2018-03-23T00:11:22.167Z,1.90
2018-03-23T00:13:48.332Z,1.90
2018-03-23T00:16:14.449Z,1.90
2018-03-23T00:18:40.566Z,1.90
2018-03-23T00:21:06.699Z,1.90
2018-03-23T00:23:32.839Z,1.90
2018-03-23T00:25:58.981Z,2.00
2018-03-23T00:28:25.916Z,1.90
2018-03-23T00:30:52.069Z,1.90
2018-03-23T00:33:18.949Z,2.00
2018-03-23T00:35:45.116Z,2.00
2018-03-23T00:38:12.037Z,2.10
2018-03-23T00:40:38.183Z,2.10
2018-03-23T00:43:04.341Z,2.10
2018-03-23T00:45:31.230Z,1.90
2018-03-23T00:47:57.365Z,1.90
2018-03-23T00:50:23.558Z,1.90
2018-03-23T00:52:49.736Z,2.00
2018-03-23T00:55:16.682Z,2.00
2018-03-23T00:57:43.641Z,2.20
2018-03-23T01:00:09.897Z,2.10
2018-03-23T01:02:36.058Z,2.10
2018-03-23T01:05:02.276Z,2.10
2018-03-23T01:07:28.456Z,2.10
2018-03-23T01:09:55.353Z,2.10
2018-03-23T01:12:21.507Z,2.10
2018-03-23T01:14:47.653Z,2.10
2018-03-23T01:17:13.803Z,2.10
2018-03-23T01:19:40.015Z,2.10
2018-03-23T01:22:07.928Z,2.10
2018-03-23T01:24:34.043Z,2.10
2018-03-23T01:27:00.227Z,2.10
2018-03-23T01:29:27.098Z,2.10
2018-03-23T01:31:53.264Z,2.10
2018-03-23T01:34:19.406Z,2.10
2018-03-23T01:36:45.552Z,2.10
2018-03-23T01:39:12.472Z,2.00
2018-03-23T01:41:38.826Z,2.00
2018-03-23T01:44:05.703Z,2.10
2018-03-23T01:46:31.880Z,2.10
2018-03-23T01:48:58.768Z,2.00
2018-03-23T01:51:24.928Z,2.00
2018-03-23T01:53:51.092Z,2.00
2018-03-23T01:56:18.016Z,2.10
2018-03-23T01:58:44.171Z,2.00
2018-03-23T02:01:11.062Z,2.20
2018-03-23T02:03:37.204Z,2.10
2018-03-23T02:06:03.307Z,2.10
2018-03-23T02:08:29.428Z,2.10
2018-03-23T02:10:55.572Z,2.10
2018-03-23T02:13:21.760Z,2.10
2018-03-23T02:15:48.636Z,2.20
2018-03-23T02:18:14.757Z,2.20
2018-03-23T02:20:40.959Z,2.20
2018-03-23T02:23:07.137Z,2.20
2018-03-23T02:25:33.355Z,2.20
2018-03-23T02:27:59.476Z,2.20
2018-03-23T02:30:25.648Z,2.20
2018-03-23T02:32:52.503Z,2.20
2018-03-23T02:35:19.421Z,2.20
2018-03-23T02:37:46.282Z,2.20
2018-03-23T02:40:13.139Z,2.30
2018-03-23T02:42:39.986Z,2.20
2018-03-23T02:45:06.185Z,2.20
2018-03-23T02:47:32.323Z,2.20
2018-03-23T02:49:59.239Z,2.20
2018-03-23T02:52:25.381Z,2.20
2018-03-23T02:54:52.235Z,2.00
2018-03-23T02:57:19.152Z,2.10
2018-03-23T02:59:45.325Z,2.10
2018-03-23T03:02:11.533Z,2.10
2018-03-23T03:04:38.408Z,2.10
2018-03-23T03:07:04.576Z,2.10
2018-03-23T03:09:30.717Z,2.10
2018-03-23T03:11:57.634Z,2.10
2018-03-23T03:14:23.769Z,2.10
2018-03-23T03:16:49.874Z,2.20
2018-03-23T03:19:15.991Z,2.30
2018-03-23T03:21:42.123Z,2.40
2018-03-23T03:24:08.288Z,2.40
2018-03-23T03:26:35.161Z,2.30
2018-03-23T03:29:02.018Z,2.30
2018-03-23T03:31:28.185Z,2.30
2018-03-23T03:33:54.301Z,2.30
2018-03-23T03:36:20.479Z,2.50
2018-03-23T03:38:47.361Z,2.50
2018-03-23T03:41:13.552Z,2.40
2018-03-23T03:43:40.453Z,2.40
2018-03-23T03:46:06.604Z,2.40
2018-03-23T03:48:32.768Z,2.40
2018-03-23T03:50:58.962Z,2.40
2018-03-23T03:53:25.928Z,2.50
2018-03-23T03:55:52.060Z,2.50
2018-03-23T03:58:18.272Z,2.50
2018-03-23T04:00:45.200Z,2.60
2018-03-23T04:03:11.313Z,2.50
2018-03-23T04:05:37.445Z,2.50
2018-03-23T04:08:03.610Z,2.70
2018-03-23T04:10:29.770Z,2.60
2018-03-23T04:12:55.852Z,2.60
2018-03-23T04:15:22.764Z,2.70
2018-03-23T04:17:49.705Z,2.70
2018-03-23T04:20:16.642Z,2.80
2018-03-23T04:22:42.770Z,2.80
2018-03-23T04:25:08.918Z,2.80
2018-03-23T04:27:35.017Z,2.80
2018-03-23T04:30:01.170Z,2.80
2018-03-23T04:32:27.367Z,2.90
2018-03-23T04:34:53.486Z,2.80
2018-03-23T04:37:19.590Z,2.80
2018-03-23T04:39:45.773Z,2.70
2018-03-23T04:42:11.897Z,2.80
2018-03-23T04:44:38.099Z,2.80
2018-03-23T04:47:04.294Z,2.80
2018-03-23T04:49:30.382Z,2.80
2018-03-23T04:51:56.523Z,2.70
2018-03-23T04:54:23.431Z,2.70
2018-03-23T04:56:49.584Z,2.70
2018-03-23T04:59:16.481Z,2.60
2018-03-23T05:01:42.631Z,2.60
2018-03-23T05:04:08.836Z,2.40
2018-03-23T05:06:35.561Z,2.50
2018-03-23T05:09:03.124Z,2.50
2018-03-23T05:11:29.294Z,2.60
2018-03-23T05:14:01.046Z,2.60
2018-03-23T05:16:27.180Z,2.50
2018-03-23T05:18:54.700Z,2.50
2018-03-23T05:21:20.801Z,2.50
2018-03-23T05:23:52.989Z,2.60
2018-03-23T05:26:19.180Z,2.40
2018-03-23T05:28:46.068Z,2.40
2018-03-23T05:31:12.144Z,2.40
2018-03-23T05:33:46.631Z,2.20
2018-03-23T05:36:15.329Z,2.20
2018-03-23T05:38:41.430Z,2.30
2018-03-23T05:41:07.607Z,2.30
2018-03-23T05:43:34.490Z,2.40
2018-03-23T05:46:00.707Z,2.40
2018-03-23T05:48:26.826Z,2.50
2018-03-23T05:50:52.955Z,2.60
2018-03-23T05:53:19.112Z,2.50
2018-03-23T05:55:45.307Z,2.40
2018-03-23T05:58:11.506Z,2.50
2018-03-23T06:00:38.429Z,2.50
2018-03-23T06:03:04.587Z,2.40
2018-03-23T06:05:34.766Z,2.50
2018-03-23T06:08:04.563Z,2.40
2018-03-23T06:10:30.689Z,2.60
2018-03-23T06:12:56.804Z,2.60
2018-03-23T06:15:22.939Z,2.50
2018-03-23T06:17:49.131Z,2.50
2018-03-23T06:20:16.012Z,2.60
2018-03-23T06:22:42.278Z,2.60
2018-03-23T06:25:08.377Z,2.60
2018-03-23T06:27:34.504Z,2.70
2018-03-23T06:30:00.652Z,2.60
2018-03-23T06:32:26.823Z,2.70
2018-03-23T06:34:52.999Z,2.70
2018-03-23T06:37:19.135Z,2.70
2018-03-23T06:39:45.367Z,2.60
2018-03-23T06:42:11.481Z,2.70
2018-03-23T06:44:37.689Z,2.90
2018-03-23T06:47:03.802Z,2.90
2018-03-23T06:49:32.093Z,2.90
2018-03-23T06:52:02.485Z,2.80
2018-03-23T06:54:28.656Z,2.90
2018-03-23T06:56:54.782Z,3.00
2018-03-23T06:59:20.899Z,3.00
2018-03-23T07:01:47.137Z,3.00
2018-03-23T07:04:13.291Z,3.00
2018-03-23T07:06:40.848Z,3.20
2018-03-23T07:09:14.462Z,3.10
2018-03-23T07:14:18.802Z,3.10
2018-03-23T07:16:48.015Z,3.00
2018-03-23T07:19:18.737Z,3.00
2018-03-23T07:21:44.916Z,2.90
2018-03-23T07:24:11.088Z,3.00
2018-03-23T07:26:37.286Z,3.00
2018-03-23T07:29:04.227Z,3.10
2018-03-23T07:31:31.128Z,3.20
2018-03-23T07:33:57.289Z,3.20
2018-03-23T07:36:23.471Z,3.20
2018-03-23T07:38:49.626Z,3.30
2018-03-23T07:41:15.785Z,3.30
2018-03-23T07:43:42.700Z,3.20
2018-03-23T07:46:08.866Z,3.20
2018-03-23T07:48:35.757Z,3.20
2018-03-23T07:51:01.977Z,3.10
2018-03-23T07:53:28.119Z,3.20
2018-03-23T07:55:54.300Z,3.20
2018-03-23T07:58:21.226Z,3.20
2018-03-23T08:00:47.389Z,3.20
2018-03-23T08:03:13.520Z,3.10
2018-03-23T08:05:39.885Z,2.90
2018-03-23T08:08:06.033Z,3.00
2018-03-23T08:10:32.180Z,3.00
2018-03-23T08:12:59.216Z,3.10
2018-03-23T08:15:26.114Z,3.20
2018-03-23T08:17:52.258Z,3.20
2018-03-23T08:20:18.448Z,3.30
2018-03-23T08:22:45.016Z,3.30
2018-03-23T08:25:11.172Z,3.40
2018-03-23T08:27:38.100Z,3.50
2018-03-23T08:30:05.036Z,3.60
2018-03-23T08:32:31.161Z,3.60
2018-03-23T08:34:57.281Z,3.60
2018-03-23T08:37:23.382Z,3.70
2018-03-23T08:39:49.519Z,3.70
2018-03-23T08:42:15.711Z,3.60
2018-03-23T08:44:42.642Z,3.50
2018-03-23T08:47:08.804Z,3.50
2018-03-23T08:49:35.024Z,3.40
2018-03-23T08:52:01.883Z,3.60
2018-03-23T08:54:27.995Z,3.60
2018-03-23T08:56:54.186Z,3.80
2018-03-23T08:59:20.419Z,3.90
2018-03-23T09:01:47.339Z,3.80
2018-03-23T09:04:13.529Z,3.80
2018-03-23T09:06:39.689Z,3.90
2018-03-23T09:09:05.870Z,3.90
2018-03-23T09:11:32.777Z,4.20
2018-03-23T09:13:59.704Z,4.20
2018-03-23T09:16:25.869Z,4.20
2018-03-23T09:18:52.726Z,4.20
2018-03-23T09:21:19.736Z,4.20
2018-03-23T09:23:46.656Z,4.20
2018-03-23T09:26:12.808Z,4.20
2018-03-23T09:28:38.967Z,4.10
2018-03-23T09:31:05.150Z,4.10
2018-03-23T09:33:31.312Z,4.20
2018-03-23T09:35:58.185Z,4.30
2018-03-23T09:38:24.328Z,4.20
2018-03-23T09:40:50.436Z,4.10
2018-03-23T09:43:16.646Z,4.20
2018-03-23T09:45:42.827Z,4.20
2018-03-23T09:48:08.945Z,4.20
2018-03-23T09:50:35.084Z,4.30
2018-03-23T09:53:01.276Z,4.30
2018-03-23T09:55:27.447Z,4.40
2018-03-23T09:57:54.301Z,4.50
2018-03-23T10:00:21.292Z,4.50
2018-03-23T10:02:47.409Z,4.50
2018-03-23T10:05:13.580Z,4.60
2018-03-23T10:07:40.458Z,4.40
2018-03-23T10:10:07.445Z,4.30
2018-03-23T10:12:33.659Z,4.30
2018-03-23T10:14:59.782Z,4.20
2018-03-23T10:17:25.899Z,4.30
2018-03-23T10:19:52.063Z,4.30
2018-03-23T10:22:18.254Z,4.30
2018-03-23T10:24:44.431Z,4.30
2018-03-23T10:27:11.330Z,4.30
2018-03-23T10:29:37.457Z,4.30
2018-03-23T10:32:03.586Z,4.40
2018-03-23T10:34:29.756Z,4.40
2018-03-23T10:36:55.951Z,4.50
2018-03-23T10:39:22.077Z,4.70
2018-03-23T10:41:48.231Z,4.60
2018-03-23T10:44:14.419Z,4.60
2018-03-23T10:46:40.613Z,4.70
2018-03-23T10:49:07.501Z,4.70
2018-03-23T10:51:33.681Z,4.70
2018-03-23T10:53:59.849Z,4.70
2018-03-23T10:56:25.990Z,4.70
2018-03-23T10:58:52.147Z,4.70
2018-03-23T11:01:24.545Z,4.70
2018-03-23T11:03:51.498Z,4.70
2018-03-23T11:06:17.708Z,4.70
2018-03-23T11:08:44.586Z,4.80
2018-03-23T11:11:10.722Z,4.80
2018-03-23T11:13:36.898Z,4.80
2018-03-23T11:16:03.061Z,5.00
2018-03-23T11:18:29.271Z,4.90
2018-03-23T11:20:56.201Z,4.80
2018-03-23T11:23:22.329Z,4.80
2018-03-23T11:25:48.520Z,4.80
2018-03-23T11:28:14.707Z,4.80
2018-03-23T11:30:40.859Z,5.00
2018-03-23T11:33:07.016Z,5.00
2018-03-23T11:35:33.137Z,5.10
2018-03-23T11:37:59.251Z,5.10
2018-03-23T11:40:25.388Z,5.00
2018-03-23T11:42:51.559Z,5.10
2018-03-23T11:45:18.492Z,4.80
2018-03-23T11:47:45.392Z,4.70
2018-03-23T11:50:11.565Z,4.70
2018-03-23T11:52:38.476Z,4.60
2018-03-23T11:55:04.661Z,4.60
2018-03-23T11:57:30.897Z,4.60
2018-03-23T11:59:57.081Z,4.60
2018-03-23T12:02:24.003Z,4.60
2018-03-23T12:04:50.152Z,4.60
2018-03-23T12:07:16.376Z,4.60
2018-03-23T12:09:42.553Z,4.70
2018-03-23T12:12:08.681Z,4.70
2018-03-23T12:14:34.834Z,4.70
2018-03-23T12:17:01.009Z,4.70
2018-03-23T12:19:27.186Z,4.70
2018-03-23T12:21:53.360Z,4.40
2018-03-23T12:24:20.265Z,4.50
2018-03-23T12:26:46.644Z,4.50
2018-03-23T12:29:12.820Z,4.40
2018-03-23T12:31:38.981Z,4.40
2018-03-23T12:34:05.812Z,4.60
2018-03-23T12:36:31.964Z,4.60
2018-03-23T12:38:58.793Z,4.80
2018-03-23T12:41:25.746Z,4.90
2018-03-23T12:43:52.598Z,5.10
2018-03-23T12:46:18.762Z,5.10
2018-03-23T12:48:44.906Z,5.00
2018-03-23T12:51:11.804Z,5.30
2018-03-23T12:53:38.697Z,5.20
2018-03-23T12:56:04.813Z,5.30
2018-03-23T12:58:31.095Z,5.40
2018-03-23T13:00:57.306Z,5.50
2018-03-23T13:03:24.235Z,5.70
2018-03-23T13:05:51.285Z,5.70
2018-03-23T13:08:17.467Z,5.70
2018-03-23T13:10:43.606Z,5.60
2018-03-23T13:13:09.799Z,5.60
2018-03-23T13:15:35.943Z,5.60
2018-03-23T13:18:02.110Z,5.50
2018-03-23T13:20:29.005Z,5.50
2018-03-23T13:22:55.176Z,5.50
2018-03-23T13:25:22.140Z,5.70
2018-03-23T13:27:49.026Z,5.70
2018-03-23T13:30:15.206Z,5.70
2018-03-23T13:32:41.372Z,5.60
2018-03-23T13:35:07.498Z,5.60
2018-03-23T13:37:33.708Z,5.60
2018-03-23T13:39:59.873Z,5.40
2018-03-23T13:42:26.009Z,5.20
2018-03-23T13:44:52.108Z,5.20
2018-03-23T13:47:18.261Z,5.10
2018-03-23T13:49:44.394Z,5.10
2018-03-23T13:52:10.533Z,5.10
2018-03-23T13:54:37.518Z,5.50
2018-03-23T13:57:03.698Z,5.50
2018-03-23T13:59:36.632Z,5.60
2018-03-23T14:02:02.833Z,5.50
2018-03-23T14:04:29.747Z,5.30
2018-03-23T14:06:55.951Z,5.20
2018-03-23T14:09:22.107Z,5.40
2018-03-23T14:11:48.308Z,5.50
2018-03-23T14:14:14.464Z,5.50
2018-03-23T14:16:41.346Z,5.70
2018-03-23T14:19:08.220Z,5.60
2018-03-23T14:21:34.451Z,5.60
2018-03-23T14:24:00.584Z,5.60
2018-03-23T14:26:26.771Z,5.40
2018-03-23T14:28:52.941Z,5.50
2018-03-23T14:31:19.020Z,5.40
2018-03-23T14:33:45.905Z,5.40
2018-03-23T14:36:12.079Z,5.40
2018-03-23T14:38:39.037Z,5.60
2018-03-23T14:41:05.885Z,5.40
2018-03-23T14:43:33.387Z,5.40
2018-03-23T14:45:59.498Z,5.40
2018-03-23T14:48:25.599Z,5.40
2018-03-23T14:50:52.432Z,5.60
2018-03-23T14:53:19.347Z,5.70
2018-03-23T14:55:46.292Z,5.80
2018-03-23T14:58:13.177Z,5.80
2018-03-23T15:00:39.482Z,5.80
2018-03-23T15:03:06.373Z,5.70
2018-03-23T15:05:32.589Z,5.70
2018-03-23T15:07:58.780Z,5.60
2018-03-23T15:10:25.645Z,5.60
2018-03-23T15:12:52.504Z,5.60
2018-03-23T15:15:18.620Z,5.60
2018-03-23T15:17:44.794Z,5.60
2018-03-23T15:20:10.936Z,5.60
2018-03-23T15:22:37.069Z,5.60
2018-03-23T15:25:03.230Z,5.60
2018-03-23T15:27:29.390Z,5.80
2018-03-23T15:29:55.587Z,5.90
2018-03-23T15:32:21.732Z,6.00
2018-03-23T15:34:47.875Z,6.20
2018-03-23T15:37:14.038Z,6.10
2018-03-23T15:39:40.963Z,6.10
2018-03-23T15:42:07.144Z,6.10
2018-03-23T15:44:33.298Z,6.00
2018-03-23T15:46:59.476Z,6.10
2018-03-23T15:49:25.689Z,6.00
2018-03-23T15:51:52.610Z,6.00
2018-03-23T15:54:19.558Z,6.10
2018-03-23T15:56:45.742Z,6.00
2018-03-23T15:59:11.870Z,6.10
2018-03-23T16:01:37.985Z,6.10
2018-03-23T16:04:04.149Z,6.20
2018-03-23T16:06:30.342Z,6.10
2018-03-23T16:08:56.483Z,6.00
2018-03-23T16:11:22.641Z,5.90
2018-03-23T16:13:49.535Z,5.90
2018-03-23T16:16:15.657Z,5.90
2018-03-23T16:18:41.805Z,6.00
2018-03-23T16:21:08.119Z,5.90
2018-03-23T16:23:34.231Z,5.80
2018-03-23T16:26:01.135Z,5.70
2018-03-23T16:28:27.398Z,5.70
2018-03-23T16:30:54.308Z,5.60
2018-03-23T16:33:20.467Z,5.60
2018-03-23T16:35:47.324Z,5.60
2018-03-23T16:38:13.497Z,5.60
2018-03-23T16:40:39.684Z,5.70
2018-03-23T16:43:05.877Z,5.70
2018-03-23T16:45:32.742Z,5.80
2018-03-23T16:47:59.672Z,5.80
2018-03-23T16:50:28.722Z,5.80
2018-03-23T16:53:02.442Z,5.70
2018-03-23T16:55:29.324Z,5.70
2018-03-23T16:57:56.194Z,5.60
2018-03-23T17:00:22.388Z,5.60
2018-03-23T17:02:49.288Z,5.50
2018-03-23T17:05:15.420Z,5.50
2018-03-23T17:07:41.595Z,5.40
2018-03-23T17:10:07.755Z,5.40
2018-03-23T17:12:33.926Z,5.40
2018-03-23T17:15:00.081Z,5.40
2018-03-23T17:17:27.013Z,5.40
2018-03-23T17:19:54.012Z,5.40
2018-03-23T17:22:20.139Z,5.40
2018-03-23T17:24:46.316Z,5.30
2018-03-23T17:27:13.247Z,5.30
2018-03-23T17:29:40.137Z,5.20
2018-03-23T17:32:06.376Z,5.20
2018-03-23T17:34:32.518Z,5.20
2018-03-23T17:36:58.778Z,5.20
2018-03-23T17:39:25.658Z,5.10
2018-03-23T17:41:51.820Z,5.00
2018-03-23T17:44:17.980Z,5.10
2018-03-23T17:46:44.873Z,5.10
2018-03-23T17:49:11.068Z,5.10
2018-03-23T17:51:37.173Z,5.10
2018-03-23T17:54:03.342Z,5.10
2018-03-23T17:56:29.516Z,5.10
2018-03-23T17:58:55.690Z,5.10
2018-03-23T18:01:21.875Z,5.00
2018-03-23T18:03:48.772Z,5.00
2018-03-23T18:06:15.044Z,5.00
2018-03-23T18:08:41.188Z,5.00
2018-03-23T18:11:09.030Z,5.00
2018-03-23T18:13:35.859Z,5.00
2018-03-23T18:16:02.078Z,4.90
2018-03-23T18:18:28.273Z,4.90
2018-03-23T18:20:54.413Z,4.90
2018-03-23T18:23:20.609Z,4.90
2018-03-23T18:25:48.499Z,4.90
2018-03-23T18:28:15.718Z,4.80
2018-03-23T18:30:42.636Z,4.90
2018-03-23T18:33:08.840Z,4.90
2018-03-23T18:35:34.996Z,4.90
2018-03-23T18:38:01.930Z,4.90
2018-03-23T18:40:28.133Z,4.90
2018-03-23T18:42:54.345Z,4.90
2018-03-23T18:45:20.576Z,4.80
2018-03-23T18:47:47.464Z,4.80
2018-03-23T18:50:13.617Z,4.80
2018-03-23T18:52:40.494Z,4.80
2018-03-23T18:55:07.377Z,4.70
2018-03-23T18:57:33.516Z,4.70
2018-03-23T18:59:59.684Z,4.60
2018-03-23T19:02:25.858Z,4.60
2018-03-23T19:04:51.992Z,4.60
2018-03-23T19:07:18.172Z,4.60
2018-03-23T19:09:44.395Z,4.60
2018-03-23T19:12:10.551Z,4.50
2018-03-23T19:14:36.739Z,4.50
2018-03-23T19:17:02.946Z,4.50
2018-03-23T19:19:29.852Z,4.30
2018-03-23T19:21:55.994Z,4.30
2018-03-23T19:24:22.192Z,4.30
2018-03-23T19:26:48.353Z,4.40
2018-03-23T19:29:15.308Z,4.50
2018-03-23T19:31:41.411Z,4.40
2018-03-23T19:34:07.581Z,4.40
2018-03-23T19:36:33.683Z,4.40
2018-03-23T19:39:00.653Z,4.40
2018-03-23T19:41:27.653Z,4.30
2018-03-23T19:43:53.844Z,4.30
2018-03-23T19:46:19.984Z,4.40
2018-03-23T19:48:46.232Z,4.50
2018-03-23T19:51:12.411Z,4.50
2018-03-23T19:53:38.534Z,4.40
2018-03-23T19:56:05.513Z,4.50
2018-03-23T19:58:31.657Z,4.50
2018-03-23T20:00:57.763Z,4.50
2018-03-23T20:03:23.913Z,4.40
2018-03-23T20:05:50.157Z,4.40
2018-03-23T20:08:16.301Z,4.40
2018-03-23T20:10:43.221Z,4.30
2018-03-23T20:13:09.440Z,4.30
2018-03-23T20:15:35.672Z,4.30
2018-03-23T20:21:02.345Z,4.20
2018-03-23T20:23:28.507Z,4.30
2018-03-23T20:25:55.428Z,4.40
2018-03-23T20:28:27.740Z,4.40
2018-03-23T20:30:53.884Z,4.40
2018-03-23T20:33:20.064Z,4.30
2018-03-23T20:35:47.002Z,4.20
2018-03-23T20:38:13.142Z,4.20
2018-03-23T20:40:40.085Z,4.20
2018-03-23T20:43:06.266Z,4.20
2018-03-23T20:45:32.553Z,4.20
2018-03-23T20:47:58.776Z,4.10
2018-03-23T20:50:24.957Z,4.10
2018-03-23T20:52:51.193Z,4.10
2018-03-23T20:55:17.338Z,4.10
2018-03-23T20:57:43.481Z,4.10
2018-03-23T21:00:10.476Z,4.00
2018-03-23T21:02:36.722Z,4.00
2018-03-23T21:05:02.943Z,4.10
2018-03-23T21:07:29.132Z,4.10
2018-03-23T21:09:55.276Z,4.10
2018-03-23T21:12:21.447Z,4.00
2018-03-23T21:14:48.364Z,3.80
2018-03-23T21:17:14.518Z,3.80
2018-03-23T21:19:40.678Z,3.80
2018-03-23T21:22:06.807Z,3.90
2018-03-23T21:24:32.934Z,3.90
2018-03-23T21:26:59.092Z,4.00
2018-03-23T21:29:25.210Z,4.10
2018-03-23T21:31:51.384Z,4.10
2018-03-23T21:34:18.299Z,3.80
2018-03-23T21:36:44.423Z,3.80
2018-03-23T21:39:10.568Z,3.90
2018-03-23T21:41:36.756Z,3.90
2018-03-23T21:44:02.960Z,3.90
2018-03-23T21:46:29.089Z,3.90
2018-03-23T21:48:55.228Z,3.90
2018-03-23T21:51:22.385Z,3.80
2018-03-23T21:53:48.560Z,3.80
2018-03-23T21:56:15.388Z,3.90
2018-03-23T21:58:41.575Z,3.90
2018-03-23T22:01:07.739Z,3.90
2018-03-23T22:03:33.913Z,3.90
2018-03-23T22:06:00.105Z,3.90
2018-03-23T22:08:27.018Z,3.90
2018-03-23T22:10:54.270Z,3.90
2018-03-23T22:13:20.436Z,4.00
2018-03-23T22:15:47.346Z,4.00
2018-03-23T22:18:14.384Z,4.00
2018-03-23T22:20:41.468Z,4.00
2018-03-23T22:23:10.432Z,3.90
2018-03-23T22:25:36.607Z,3.90
2018-03-23T22:28:03.592Z,4.00
2018-03-23T22:30:29.757Z,4.00
2018-03-23T22:32:55.932Z,4.00
2018-03-23T22:35:22.092Z,3.90
2018-03-23T22:37:49.000Z,3.80
2018-03-23T22:40:15.140Z,3.80
2018-03-23T22:42:41.249Z,3.80
2018-03-23T22:45:07.370Z,3.90
2018-03-23T22:47:33.561Z,3.90
2018-03-23T22:49:59.772Z,4.00
2018-03-23T22:52:25.919Z,4.10
2018-03-23T22:54:52.124Z,4.00
2018-03-23T22:57:18.279Z,3.90
2018-03-23T22:59:45.247Z,3.90
2018-03-23T23:02:11.377Z,3.80
2018-03-23T23:04:37.512Z,3.90
2018-03-23T23:07:03.680Z,3.80
2018-03-23T23:09:29.832Z,3.80
2018-03-23T23:11:56.784Z,3.70
2018-03-23T23:14:23.674Z,3.70
2018-03-23T23:16:49.830Z,3.70
2018-03-23T23:19:16.724Z,3.70
2018-03-23T23:21:42.888Z,3.70
2018-03-23T23:24:09.063Z,3.70
2018-03-23T23:26:35.201Z,3.70
2018-03-23T23:29:01.344Z,3.80
2018-03-23T23:31:27.568Z,3.80
2018-03-23T23:33:53.724Z,3.80
2018-03-23T23:36:19.884Z,3.80
2018-03-23T23:38:46.759Z,3.70
2018-03-23T23:41:12.853Z,3.70
2018-03-23T23:43:39.793Z,3.70
2018-03-23T23:46:05.921Z,3.70
2018-03-23T23:48:32.902Z,3.70
2018-03-23T23:50:59.036Z,3.70
2018-03-23T23:53:25.170Z,3.70
2018-03-23T23:55:51.345Z,3.70
2018-03-23T23:58:18.225Z,3.70
